sensor_id;sensor_type;location;lat;lon;timestamp;P1;durP1;ratioP1;P2;durP2;ratioP2
49376;SDS011;35253;34.688;33.040;2023-04-24T00:01:41;2.72;;;2.38;;
49376;SDS011;35253;34.688;33.040;2023-04-24T00:04:07;2.10;;;1.90;;
49376;SDS011;35253;34.688;33.040;2023-04-24T00:06:36;2.13;;;1.92;;
49376;SDS011;35253;34.688;33.040;2023-04-24T00:09:02;4.53;;;2.20;;
49376;SDS011;35253;34.688;33.040;2023-04-24T00:11:29;1.70;;;1.38;;
49376;SDS011;35253;34.688;33.040;2023-04-24T00:13:55;5.22;;;2.40;;
49376;SDS011;35253;34.688;33.040;2023-04-24T00:16:22;3.90;;;1.83;;
49376;SDS011;35253;34.688;33.040;2023-04-24T00:18:48;7.80;;;3.10;;
49376;SDS011;35253;34.688;33.040;2023-04-24T00:21:14;4.72;;;2.17;;
49376;SDS011;35253;34.688;33.040;2023-04-24T00:23:42;3.90;;;1.42;;
49376;SDS011;35253;34.688;33.040;2023-04-24T00:26:09;5.05;;;1.55;;
49376;SDS011;35253;34.688;33.040;2023-04-24T00:28:34;3.72;;;2.30;;
49376;SDS011;35253;34.688;33.040;2023-04-24T00:31:00;15.02;;;4.10;;
49376;SDS011;35253;34.688;33.040;2023-04-24T00:33:26;40.45;;;8.85;;
49376;SDS011;35253;34.688;33.040;2023-04-24T00:35:52;8.70;;;2.22;;
49376;SDS011;35253;34.688;33.040;2023-04-24T00:38:18;8.27;;;2.92;;
49376;SDS011;35253;34.688;33.040;2023-04-24T00:40:43;2.40;;;2.20;;
49376;SDS011;35253;34.688;33.040;2023-04-24T00:43:09;2.22;;;1.85;;
49376;SDS011;35253;34.688;33.040;2023-04-24T00:45:37;2.10;;;1.85;;
49376;SDS011;35253;34.688;33.040;2023-04-24T00:48:02;1.83;;;1.67;;
49376;SDS011;35253;34.688;33.040;2023-04-24T00:50:29;3.65;;;2.85;;
49376;SDS011;35253;34.688;33.040;2023-04-24T00:52:55;2.70;;;1.75;;
49376;SDS011;35253;34.688;33.040;2023-04-24T00:55:21;2.08;;;1.88;;
49376;SDS011;35253;34.688;33.040;2023-04-24T00:57:47;5.43;;;2.72;;
49376;SDS011;35253;34.688;33.040;2023-04-24T01:00:14;2.72;;;2.30;;
49376;SDS011;35253;34.688;33.040;2023-04-24T01:02:41;2.63;;;2.38;;
49376;SDS011;35253;34.688;33.040;2023-04-24T01:05:10;3.72;;;2.00;;
49376;SDS011;35253;34.688;33.040;2023-04-24T01:07:38;3.88;;;2.20;;
49376;SDS011;35253;34.688;33.040;2023-04-24T01:10:06;2.70;;;2.50;;
49376;SDS011;35253;34.688;33.040;2023-04-24T01:12:33;2.78;;;2.25;;
49376;SDS011;35253;34.688;33.040;2023-04-24T01:14:59;4.63;;;2.17;;
49376;SDS011;35253;34.688;33.040;2023-04-24T01:17:26;6.85;;;2.70;;
49376;SDS011;35253;34.688;33.040;2023-04-24T01:19:51;3.70;;;2.03;;
49376;SDS011;35253;34.688;33.040;2023-04-24T01:24:47;4.25;;;2.75;;
49376;SDS011;35253;34.688;33.040;2023-04-24T01:27:13;3.03;;;2.72;;
49376;SDS011;35253;34.688;33.040;2023-04-24T01:29:38;3.30;;;2.45;;
49376;SDS011;35253;34.688;33.040;2023-04-24T01:32:05;2.78;;;2.20;;
49376;SDS011;35253;34.688;33.040;2023-04-24T01:34:31;6.45;;;2.08;;
49376;SDS011;35253;34.688;33.040;2023-04-24T01:36:57;2.90;;;2.50;;
49376;SDS011;35253;34.688;33.040;2023-04-24T01:39:23;4.35;;;2.17;;
49376;SDS011;35253;34.688;33.040;2023-04-24T01:41:51;4.70;;;2.97;;
49376;SDS011;35253;34.688;33.040;2023-04-24T01:44:17;3.45;;;2.90;;
49376;SDS011;35253;34.688;33.040;2023-04-24T01:46:43;6.28;;;2.90;;
49376;SDS011;35253;34.688;33.040;2023-04-24T01:49:10;6.38;;;3.40;;
49376;SDS011;35253;34.688;33.040;2023-04-24T01:51:36;2.90;;;2.70;;
49376;SDS011;35253;34.688;33.040;2023-04-24T01:54:01;9.15;;;3.10;;
49376;SDS011;35253;34.688;33.040;2023-04-24T01:56:31;4.28;;;3.13;;
49376;SDS011;35253;34.688;33.040;2023-04-24T01:59:00;7.43;;;2.83;;
49376;SDS011;35253;34.688;33.040;2023-04-24T02:01:31;4.55;;;2.50;;
49376;SDS011;35253;34.688;33.040;2023-04-24T02:04:00;4.50;;;3.38;;
49376;SDS011;35253;34.688;33.040;2023-04-24T02:06:25;5.72;;;2.67;;
49376;SDS011;35253;34.688;33.040;2023-04-24T02:08:51;2.97;;;2.40;;
49376;SDS011;35253;34.688;33.040;2023-04-24T02:11:17;4.57;;;2.90;;
49376;SDS011;35253;34.688;33.040;2023-04-24T02:13:43;4.25;;;2.05;;
49376;SDS011;35253;34.688;33.040;2023-04-24T02:16:09;4.57;;;1.95;;
49376;SDS011;35253;34.688;33.040;2023-04-24T02:18:35;3.58;;;1.30;;
49376;SDS011;35253;34.688;33.040;2023-04-24T02:21:01;4.95;;;2.92;;
49376;SDS011;35253;34.688;33.040;2023-04-24T02:23:26;3.80;;;2.25;;
49376;SDS011;35253;34.688;33.040;2023-04-24T02:25:52;2.65;;;1.90;;
49376;SDS011;35253;34.688;33.040;2023-04-24T02:28:18;3.50;;;2.42;;
49376;SDS011;35253;34.688;33.040;2023-04-24T02:30:44;2.58;;;2.10;;
49376;SDS011;35253;34.688;33.040;2023-04-24T02:33:10;10.70;;;3.85;;
49376;SDS011;35253;34.688;33.040;2023-04-24T02:35:37;2.50;;;2.20;;
49376;SDS011;35253;34.688;33.040;2023-04-24T02:38:03;7.65;;;2.63;;
49376;SDS011;35253;34.688;33.040;2023-04-24T02:40:29;3.65;;;2.53;;
49376;SDS011;35253;34.688;33.040;2023-04-24T02:42:55;3.38;;;2.88;;
49376;SDS011;35253;34.688;33.040;2023-04-24T02:45:20;2.22;;;1.92;;
49376;SDS011;35253;34.688;33.040;2023-04-24T02:47:46;3.90;;;2.22;;
49376;SDS011;35253;34.688;33.040;2023-04-24T02:50:12;3.60;;;2.35;;
49376;SDS011;35253;34.688;33.040;2023-04-24T02:52:38;4.82;;;2.72;;
49376;SDS011;35253;34.688;33.040;2023-04-24T02:55:03;4.45;;;2.10;;
49376;SDS011;35253;34.688;33.040;2023-04-24T02:57:30;4.03;;;2.10;;
49376;SDS011;35253;34.688;33.040;2023-04-24T02:59:55;4.28;;;2.30;;
49376;SDS011;35253;34.688;33.040;2023-04-24T03:02:21;5.40;;;3.03;;
49376;SDS011;35253;34.688;33.040;2023-04-24T03:04:47;5.50;;;2.47;;
49376;SDS011;35253;34.688;33.040;2023-04-24T03:07:15;4.65;;;2.58;;
49376;SDS011;35253;34.688;33.040;2023-04-24T03:09:41;3.40;;;3.05;;
49376;SDS011;35253;34.688;33.040;2023-04-24T03:12:07;4.60;;;2.63;;
49376;SDS011;35253;34.688;33.040;2023-04-24T03:14:32;4.65;;;2.65;;
49376;SDS011;35253;34.688;33.040;2023-04-24T03:16:58;7.85;;;2.15;;
49376;SDS011;35253;34.688;33.040;2023-04-24T03:19:24;6.93;;;4.45;;
49376;SDS011;35253;34.688;33.040;2023-04-24T03:21:50;5.13;;;2.20;;
49376;SDS011;35253;34.688;33.040;2023-04-24T03:24:16;4.22;;;2.95;;
49376;SDS011;35253;34.688;33.040;2023-04-24T03:26:41;5.50;;;2.03;;
49376;SDS011;35253;34.688;33.040;2023-04-24T03:29:07;5.95;;;2.72;;
49376;SDS011;35253;34.688;33.040;2023-04-24T03:31:33;7.72;;;3.13;;
49376;SDS011;35253;34.688;33.040;2023-04-24T03:33:58;4.07;;;1.98;;
49376;SDS011;35253;34.688;33.040;2023-04-24T03:36:24;4.68;;;2.20;;
49376;SDS011;35253;34.688;33.040;2023-04-24T03:38:51;7.03;;;2.50;;
49376;SDS011;35253;34.688;33.040;2023-04-24T03:41:17;5.85;;;2.22;;
49376;SDS011;35253;34.688;33.040;2023-04-24T03:43:42;7.35;;;2.63;;
49376;SDS011;35253;34.688;33.040;2023-04-24T03:46:08;5.57;;;2.10;;
49376;SDS011;35253;34.688;33.040;2023-04-24T03:48:34;4.85;;;2.60;;
49376;SDS011;35253;34.688;33.040;2023-04-24T03:51:00;3.95;;;2.45;;
49376;SDS011;35253;34.688;33.040;2023-04-24T03:53:26;4.65;;;2.42;;
49376;SDS011;35253;34.688;33.040;2023-04-24T03:55:52;10.75;;;2.90;;
49376;SDS011;35253;34.688;33.040;2023-04-24T03:58:18;4.05;;;2.05;;
49376;SDS011;35253;34.688;33.040;2023-04-24T04:00:44;3.95;;;2.85;;
49376;SDS011;35253;34.688;33.040;2023-04-24T04:03:12;5.45;;;2.97;;
49376;SDS011;35253;34.688;33.040;2023-04-24T04:05:39;8.98;;;3.08;;
49376;SDS011;35253;34.688;33.040;2023-04-24T04:08:05;9.02;;;2.63;;
49376;SDS011;35253;34.688;33.040;2023-04-24T04:10:31;5.80;;;2.50;;
49376;SDS011;35253;34.688;33.040;2023-04-24T04:12:56;8.25;;;2.92;;
49376;SDS011;35253;34.688;33.040;2023-04-24T04:15:22;6.60;;;2.58;;
49376;SDS011;35253;34.688;33.040;2023-04-24T04:17:48;14.00;;;3.28;;
49376;SDS011;35253;34.688;33.040;2023-04-24T04:20:13;11.32;;;3.10;;
49376;SDS011;35253;34.688;33.040;2023-04-24T04:22:39;8.05;;;2.70;;
49376;SDS011;35253;34.688;33.040;2023-04-24T04:25:06;13.15;;;3.75;;
49376;SDS011;35253;34.688;33.040;2023-04-24T04:27:33;11.02;;;3.33;;
49376;SDS011;35253;34.688;33.040;2023-04-24T04:29:59;7.65;;;2.63;;
49376;SDS011;35253;34.688;33.040;2023-04-24T04:32:33;14.40;;;3.70;;
49376;SDS011;35253;34.688;33.040;2023-04-24T04:35:02;10.00;;;2.92;;
49376;SDS011;35253;34.688;33.040;2023-04-24T04:37:34;7.85;;;2.28;;
49376;SDS011;35253;34.688;33.040;2023-04-24T04:40:00;8.57;;;2.70;;
49376;SDS011;35253;34.688;33.040;2023-04-24T04:42:31;12.30;;;2.70;;
49376;SDS011;35253;34.688;33.040;2023-04-24T04:45:02;12.55;;;3.42;;
49376;SDS011;35253;34.688;33.040;2023-04-24T04:47:28;11.93;;;1.95;;
49376;SDS011;35253;34.688;33.040;2023-04-24T04:49:56;11.82;;;2.75;;
49376;SDS011;35253;34.688;33.040;2023-04-24T04:52:22;8.65;;;2.00;;
49376;SDS011;35253;34.688;33.040;2023-04-24T04:54:50;15.50;;;2.83;;
49376;SDS011;35253;34.688;33.040;2023-04-24T04:57:15;16.08;;;2.80;;
49376;SDS011;35253;34.688;33.040;2023-04-24T04:59:41;13.68;;;2.58;;
49376;SDS011;35253;34.688;33.040;2023-04-24T05:02:07;12.80;;;3.50;;
49376;SDS011;35253;34.688;33.040;2023-04-24T05:04:33;10.23;;;2.17;;
49376;SDS011;35253;34.688;33.040;2023-04-24T05:06:58;10.73;;;2.63;;
49376;SDS011;35253;34.688;33.040;2023-04-24T05:09:24;14.50;;;4.63;;
49376;SDS011;35253;34.688;33.040;2023-04-24T05:11:52;21.40;;;3.67;;
49376;SDS011;35253;34.688;33.040;2023-04-24T05:14:18;14.55;;;2.63;;
49376;SDS011;35253;34.688;33.040;2023-04-24T05:16:44;8.05;;;1.88;;
49376;SDS011;35253;34.688;33.040;2023-04-24T05:19:10;7.90;;;1.65;;
49376;SDS011;35253;34.688;33.040;2023-04-24T05:21:40;10.45;;;1.98;;
49376;SDS011;35253;34.688;33.040;2023-04-24T05:24:06;10.20;;;4.13;;
49376;SDS011;35253;34.688;33.040;2023-04-24T05:26:32;8.18;;;2.53;;
49376;SDS011;35253;34.688;33.040;2023-04-24T05:28:58;7.93;;;3.17;;
49376;SDS011;35253;34.688;33.040;2023-04-24T05:31:24;11.02;;;2.45;;
49376;SDS011;35253;34.688;33.040;2023-04-24T05:33:50;5.80;;;2.95;;
49376;SDS011;35253;34.688;33.040;2023-04-24T05:36:16;8.95;;;3.17;;
49376;SDS011;35253;34.688;33.040;2023-04-24T05:38:41;7.28;;;2.30;;
49376;SDS011;35253;34.688;33.040;2023-04-24T05:41:07;6.47;;;2.25;;
49376;SDS011;35253;34.688;33.040;2023-04-24T05:43:33;11.25;;;1.75;;
49376;SDS011;35253;34.688;33.040;2023-04-24T05:45:58;7.85;;;2.72;;
49376;SDS011;35253;34.688;33.040;2023-04-24T05:48:24;9.75;;;2.25;;
49376;SDS011;35253;34.688;33.040;2023-04-24T05:50:51;7.78;;;3.17;;
49376;SDS011;35253;34.688;33.040;2023-04-24T05:53:17;8.68;;;2.30;;
49376;SDS011;35253;34.688;33.040;2023-04-24T05:55:43;7.15;;;2.53;;
49376;SDS011;35253;34.688;33.040;2023-04-24T05:58:10;4.57;;;2.58;;
49376;SDS011;35253;34.688;33.040;2023-04-24T06:00:37;7.40;;;2.40;;
49376;SDS011;35253;34.688;33.040;2023-04-24T06:03:04;6.50;;;2.40;;
49376;SDS011;35253;34.688;33.040;2023-04-24T06:05:30;6.85;;;2.53;;
49376;SDS011;35253;34.688;33.040;2023-04-24T06:07:56;7.35;;;2.88;;
49376;SDS011;35253;34.688;33.040;2023-04-24T06:10:22;8.68;;;3.55;;
49376;SDS011;35253;34.688;33.040;2023-04-24T06:12:48;9.77;;;3.45;;
49376;SDS011;35253;34.688;33.040;2023-04-24T06:15:13;5.93;;;2.75;;
49376;SDS011;35253;34.688;33.040;2023-04-24T06:17:39;10.68;;;3.63;;
49376;SDS011;35253;34.688;33.040;2023-04-24T06:20:05;6.78;;;2.88;;
49376;SDS011;35253;34.688;33.040;2023-04-24T06:22:33;9.05;;;2.70;;
49376;SDS011;35253;34.688;33.040;2023-04-24T06:24:59;5.07;;;3.47;;
49376;SDS011;35253;34.688;33.040;2023-04-24T06:27:25;7.75;;;2.80;;
49376;SDS011;35253;34.688;33.040;2023-04-24T06:29:51;8.82;;;3.28;;
49376;SDS011;35253;34.688;33.040;2023-04-24T06:32:23;8.38;;;2.70;;
49376;SDS011;35253;34.688;33.040;2023-04-24T06:34:50;15.65;;;3.22;;
49376;SDS011;35253;34.688;33.040;2023-04-24T06:37:17;7.38;;;2.80;;
49376;SDS011;35253;34.688;33.040;2023-04-24T06:39:43;9.32;;;3.75;;
49376;SDS011;35253;34.688;33.040;2023-04-24T06:42:09;8.38;;;2.38;;
49376;SDS011;35253;34.688;33.040;2023-04-24T06:44:35;14.05;;;3.38;;
49376;SDS011;35253;34.688;33.040;2023-04-24T06:47:12;10.68;;;3.90;;
49376;SDS011;35253;34.688;33.040;2023-04-24T06:49:40;11.73;;;3.00;;
49376;SDS011;35253;34.688;33.040;2023-04-24T06:52:06;10.20;;;3.40;;
49376;SDS011;35253;34.688;33.040;2023-04-24T06:54:32;10.20;;;3.10;;
49376;SDS011;35253;34.688;33.040;2023-04-24T06:56:58;5.93;;;2.10;;
49376;SDS011;35253;34.688;33.040;2023-04-24T06:59:25;8.88;;;3.05;;
49376;SDS011;35253;34.688;33.040;2023-04-24T07:01:52;8.05;;;2.67;;
49376;SDS011;35253;34.688;33.040;2023-04-24T07:04:18;15.80;;;2.90;;
49376;SDS011;35253;34.688;33.040;2023-04-24T07:06:47;12.75;;;3.83;;
49376;SDS011;35253;34.688;33.040;2023-04-24T07:09:16;7.53;;;2.22;;
49376;SDS011;35253;34.688;33.040;2023-04-24T07:11:43;8.32;;;2.65;;
49376;SDS011;35253;34.688;33.040;2023-04-24T07:14:10;10.10;;;2.85;;
49376;SDS011;35253;34.688;33.040;2023-04-24T07:16:36;6.68;;;2.33;;
49376;SDS011;35253;34.688;33.040;2023-04-24T07:19:01;7.93;;;3.22;;
49376;SDS011;35253;34.688;33.040;2023-04-24T07:21:27;8.20;;;2.65;;
49376;SDS011;35253;34.688;33.040;2023-04-24T07:23:53;12.20;;;4.38;;
49376;SDS011;35253;34.688;33.040;2023-04-24T07:26:19;8.80;;;2.40;;
49376;SDS011;35253;34.688;33.040;2023-04-24T07:28:45;6.78;;;2.20;;
49376;SDS011;35253;34.688;33.040;2023-04-24T07:31:11;11.20;;;2.20;;
49376;SDS011;35253;34.688;33.040;2023-04-24T07:33:37;6.28;;;3.60;;
49376;SDS011;35253;34.688;33.040;2023-04-24T07:36:03;7.88;;;3.10;;
49376;SDS011;35253;34.688;33.040;2023-04-24T07:38:30;8.10;;;2.28;;
49376;SDS011;35253;34.688;33.040;2023-04-24T07:40:56;10.55;;;4.03;;
49376;SDS011;35253;34.688;33.040;2023-04-24T07:43:22;6.53;;;3.83;;
49376;SDS011;35253;34.688;33.040;2023-04-24T07:45:49;10.43;;;3.00;;
49376;SDS011;35253;34.688;33.040;2023-04-24T07:48:16;8.85;;;2.88;;
49376;SDS011;35253;34.688;33.040;2023-04-24T07:50:43;9.18;;;3.30;;
49376;SDS011;35253;34.688;33.040;2023-04-24T07:53:10;12.27;;;5.55;;
49376;SDS011;35253;34.688;33.040;2023-04-24T07:55:36;10.75;;;5.20;;
49376;SDS011;35253;34.688;33.040;2023-04-24T07:58:01;9.98;;;3.85;;
49376;SDS011;35253;34.688;33.040;2023-04-24T08:00:27;7.22;;;3.90;;
49376;SDS011;35253;34.688;33.040;2023-04-24T08:02:53;10.02;;;4.72;;
49376;SDS011;35253;34.688;33.040;2023-04-24T08:05:18;6.43;;;4.20;;
49376;SDS011;35253;34.688;33.040;2023-04-24T08:07:45;7.53;;;5.47;;
49376;SDS011;35253;34.688;33.040;2023-04-24T08:10:13;17.13;;;8.25;;
49376;SDS011;35253;34.688;33.040;2023-04-24T08:12:40;11.80;;;6.53;;
49376;SDS011;35253;34.688;33.040;2023-04-24T08:15:06;10.05;;;6.00;;
49376;SDS011;35253;34.688;33.040;2023-04-24T08:17:33;14.15;;;5.50;;
49376;SDS011;35253;34.688;33.040;2023-04-24T08:20:00;13.25;;;6.20;;
49376;SDS011;35253;34.688;33.040;2023-04-24T08:22:27;8.75;;;5.15;;
49376;SDS011;35253;34.688;33.040;2023-04-24T08:24:54;9.63;;;5.63;;
49376;SDS011;35253;34.688;33.040;2023-04-24T08:27:21;14.30;;;5.22;;
49376;SDS011;35253;34.688;33.040;2023-04-24T08:29:46;12.48;;;6.47;;
49376;SDS011;35253;34.688;33.040;2023-04-24T08:32:12;16.95;;;5.72;;
49376;SDS011;35253;34.688;33.040;2023-04-24T08:34:39;10.27;;;5.75;;
49376;SDS011;35253;34.688;33.040;2023-04-24T08:37:05;12.27;;;6.82;;
49376;SDS011;35253;34.688;33.040;2023-04-24T08:39:31;9.68;;;6.00;;
49376;SDS011;35253;34.688;33.040;2023-04-24T08:41:56;10.70;;;6.30;;
49376;SDS011;35253;34.688;33.040;2023-04-24T08:44:30;10.10;;;5.30;;
49376;SDS011;35253;34.688;33.040;2023-04-24T08:46:57;11.40;;;5.70;;
49376;SDS011;35253;34.688;33.040;2023-04-24T08:49:24;11.82;;;5.78;;
49376;SDS011;35253;34.688;33.040;2023-04-24T08:51:50;13.85;;;5.15;;
49376;SDS011;35253;34.688;33.040;2023-04-24T08:54:17;9.75;;;5.03;;
49376;SDS011;35253;34.688;33.040;2023-04-24T08:56:43;16.88;;;7.20;;
49376;SDS011;35253;34.688;33.040;2023-04-24T08:59:10;14.10;;;6.43;;
49376;SDS011;35253;34.688;33.040;2023-04-24T09:01:37;12.85;;;5.35;;
49376;SDS011;35253;34.688;33.040;2023-04-24T09:04:04;10.38;;;4.90;;
49376;SDS011;35253;34.688;33.040;2023-04-24T09:09:00;10.40;;;4.70;;
49376;SDS011;35253;34.688;33.040;2023-04-24T09:11:27;7.03;;;4.80;;
49376;SDS011;35253;34.688;33.040;2023-04-24T09:13:53;17.52;;;5.57;;
49376;SDS011;35253;34.688;33.040;2023-04-24T09:16:20;12.57;;;5.47;;
49376;SDS011;35253;34.688;33.040;2023-04-24T09:18:45;9.32;;;4.90;;
49376;SDS011;35253;34.688;33.040;2023-04-24T09:21:11;6.63;;;4.40;;
49376;SDS011;35253;34.688;33.040;2023-04-24T09:23:37;6.13;;;4.53;;
49376;SDS011;35253;34.688;33.040;2023-04-24T09:26:04;13.30;;;5.28;;
49376;SDS011;35253;34.688;33.040;2023-04-24T09:28:37;13.90;;;5.57;;
49376;SDS011;35253;34.688;33.040;2023-04-24T09:31:05;8.45;;;4.78;;
49376;SDS011;35253;34.688;33.040;2023-04-24T09:33:31;16.13;;;6.57;;
49376;SDS011;35253;34.688;33.040;2023-04-24T09:35:58;12.50;;;5.43;;
49376;SDS011;35253;34.688;33.040;2023-04-24T09:38:57;10.30;;;5.50;;
49376;SDS011;35253;34.688;33.040;2023-04-24T09:41:18;10.98;;;5.82;;
49376;SDS011;35253;34.688;33.040;2023-04-24T09:43:44;10.10;;;4.97;;
49376;SDS011;35253;34.688;33.040;2023-04-24T09:46:10;9.07;;;5.03;;
49376;SDS011;35253;34.688;33.040;2023-04-24T09:48:36;10.70;;;5.30;;
49376;SDS011;35253;34.688;33.040;2023-04-24T09:51:03;9.35;;;6.10;;
49376;SDS011;35253;34.688;33.040;2023-04-24T09:53:32;13.10;;;6.00;;
49376;SDS011;35253;34.688;33.040;2023-04-24T09:56:10;12.90;;;6.68;;
49376;SDS011;35253;34.688;33.040;2023-04-24T09:58:38;15.13;;;6.90;;
49376;SDS011;35253;34.688;33.040;2023-04-24T10:01:04;10.68;;;5.10;;
49376;SDS011;35253;34.688;33.040;2023-04-24T10:03:30;15.57;;;5.53;;
49376;SDS011;35253;34.688;33.040;2023-04-24T10:06:01;12.98;;;6.35;;
49376;SDS011;35253;34.688;33.040;2023-04-24T10:08:33;10.40;;;6.35;;
49376;SDS011;35253;34.688;33.040;2023-04-24T10:11:00;10.93;;;5.00;;
49376;SDS011;35253;34.688;33.040;2023-04-24T10:13:27;10.05;;;5.40;;
49376;SDS011;35253;34.688;33.040;2023-04-24T10:15:53;13.82;;;7.50;;
49376;SDS011;35253;34.688;33.040;2023-04-24T10:18:20;14.18;;;8.07;;
49376;SDS011;35253;34.688;33.040;2023-04-24T10:20:46;11.70;;;6.00;;
49376;SDS011;35253;34.688;33.040;2023-04-24T10:23:12;15.90;;;8.63;;
49376;SDS011;35253;34.688;33.040;2023-04-24T10:25:38;9.07;;;6.22;;
49376;SDS011;35253;34.688;33.040;2023-04-24T10:28:04;11.45;;;6.85;;
49376;SDS011;35253;34.688;33.040;2023-04-24T10:30:31;13.77;;;6.60;;
49376;SDS011;35253;34.688;33.040;2023-04-24T10:33:04;14.32;;;8.00;;
49376;SDS011;35253;34.688;33.040;2023-04-24T10:35:37;9.27;;;4.85;;
49376;SDS011;35253;34.688;33.040;2023-04-24T10:38:09;12.48;;;5.65;;
49376;SDS011;35253;34.688;33.040;2023-04-24T10:40:37;19.17;;;6.05;;
49376;SDS011;35253;34.688;33.040;2023-04-24T10:43:06;8.45;;;4.30;;
49376;SDS011;35253;34.688;33.040;2023-04-24T10:45:34;13.73;;;6.60;;
49376;SDS011;35253;34.688;33.040;2023-04-24T10:48:09;14.52;;;6.78;;
49376;SDS011;35253;34.688;33.040;2023-04-24T10:50:45;9.35;;;6.85;;
49376;SDS011;35253;34.688;33.040;2023-04-24T10:53:14;9.40;;;5.93;;
49376;SDS011;35253;34.688;33.040;2023-04-24T10:55:51;11.90;;;7.45;;
49376;SDS011;35253;34.688;33.040;2023-04-24T10:58:25;11.07;;;5.60;;
49376;SDS011;35253;34.688;33.040;2023-04-24T11:01:05;9.70;;;4.82;;
49376;SDS011;35253;34.688;33.040;2023-04-24T11:03:32;10.75;;;5.10;;
49376;SDS011;35253;34.688;33.040;2023-04-24T11:06:03;12.95;;;5.55;;
49376;SDS011;35253;34.688;33.040;2023-04-24T11:16:26;11.98;;;6.72;;
49376;SDS011;35253;34.688;33.040;2023-04-24T11:24:40;13.60;;;6.45;;
49376;SDS011;35253;34.688;33.040;2023-04-24T11:27:17;13.63;;;4.78;;
49376;SDS011;35253;34.688;33.040;2023-04-24T11:32:34;15.50;;;8.00;;
49376;SDS011;35253;34.688;33.040;2023-04-24T11:35:04;14.35;;;5.40;;
49376;SDS011;35253;34.688;33.040;2023-04-24T11:37:38;7.78;;;4.68;;
49376;SDS011;35253;34.688;33.040;2023-04-24T11:40:11;15.75;;;4.70;;
49376;SDS011;35253;34.688;33.040;2023-04-24T11:42:39;12.90;;;5.55;;
49376;SDS011;35253;34.688;33.040;2023-04-24T11:45:07;9.25;;;4.35;;
49376;SDS011;35253;34.688;33.040;2023-04-24T11:47:40;10.57;;;5.25;;
49376;SDS011;35253;34.688;33.040;2023-04-24T11:50:10;12.45;;;5.63;;
49376;SDS011;35253;34.688;33.040;2023-04-24T11:52:37;14.18;;;6.50;;
49376;SDS011;35253;34.688;33.040;2023-04-24T11:55:06;15.75;;;5.88;;
49376;SDS011;35253;34.688;33.040;2023-04-24T11:57:33;10.55;;;4.63;;
49376;SDS011;35253;34.688;33.040;2023-04-24T12:00:01;10.50;;;4.80;;
49376;SDS011;35253;34.688;33.040;2023-04-24T12:02:29;10.70;;;3.97;;
49376;SDS011;35253;34.688;33.040;2023-04-24T12:04:55;10.70;;;5.53;;
49376;SDS011;35253;34.688;33.040;2023-04-24T12:07:21;9.70;;;5.25;;
49376;SDS011;35253;34.688;33.040;2023-04-24T12:09:58;7.65;;;5.05;;
49376;SDS011;35253;34.688;33.040;2023-04-24T12:12:28;9.38;;;4.97;;
49376;SDS011;35253;34.688;33.040;2023-04-24T12:14:54;16.75;;;5.35;;
49376;SDS011;35253;34.688;33.040;2023-04-24T12:17:25;7.78;;;5.38;;
49376;SDS011;35253;34.688;33.040;2023-04-24T12:22:26;8.77;;;4.78;;
49376;SDS011;35253;34.688;33.040;2023-04-24T12:24:58;13.13;;;5.85;;
49376;SDS011;35253;34.688;33.040;2023-04-24T12:27:28;13.82;;;6.07;;
49376;SDS011;35253;34.688;33.040;2023-04-24T12:29:58;13.25;;;5.15;;
49376;SDS011;35253;34.688;33.040;2023-04-24T12:32:25;9.52;;;5.10;;
49376;SDS011;35253;34.688;33.040;2023-04-24T12:34:51;13.15;;;6.22;;
49376;SDS011;35253;34.688;33.040;2023-04-24T12:37:18;8.85;;;4.78;;
49376;SDS011;35253;34.688;33.040;2023-04-24T12:42:31;13.60;;;6.97;;
49376;SDS011;35253;34.688;33.040;2023-04-24T12:45:05;17.02;;;6.78;;
49376;SDS011;35253;34.688;33.040;2023-04-24T12:47:32;10.82;;;6.53;;
49376;SDS011;35253;34.688;33.040;2023-04-24T12:49:59;14.95;;;5.40;;
49376;SDS011;35253;34.688;33.040;2023-04-24T12:52:25;9.07;;;4.60;;
49376;SDS011;35253;34.688;33.040;2023-04-24T12:54:53;12.70;;;4.38;;
49376;SDS011;35253;34.688;33.040;2023-04-24T12:57:20;11.73;;;5.60;;
49376;SDS011;35253;34.688;33.040;2023-04-24T12:59:46;16.73;;;8.32;;
49376;SDS011;35253;34.688;33.040;2023-04-24T13:02:12;9.68;;;5.35;;
49376;SDS011;35253;34.688;33.040;2023-04-24T13:04:38;8.98;;;4.35;;
49376;SDS011;35253;34.688;33.040;2023-04-24T13:07:05;8.18;;;4.65;;
49376;SDS011;35253;34.688;33.040;2023-04-24T13:09:31;9.63;;;4.47;;
49376;SDS011;35253;34.688;33.040;2023-04-24T13:11:57;8.95;;;4.55;;
49376;SDS011;35253;34.688;33.040;2023-04-24T13:14:22;10.60;;;4.65;;
49376;SDS011;35253;34.688;33.040;2023-04-24T13:16:48;9.98;;;4.85;;
49376;SDS011;35253;34.688;33.040;2023-04-24T13:19:14;9.15;;;4.10;;
49376;SDS011;35253;34.688;33.040;2023-04-24T13:21:40;7.20;;;5.80;;
49376;SDS011;35253;34.688;33.040;2023-04-24T13:24:06;9.40;;;5.82;;
49376;SDS011;35253;34.688;33.040;2023-04-24T13:26:33;13.63;;;8.07;;
49376;SDS011;35253;34.688;33.040;2023-04-24T13:28:58;14.50;;;5.43;;
49376;SDS011;35253;34.688;33.040;2023-04-24T13:31:24;10.40;;;5.65;;
49376;SDS011;35253;34.688;33.040;2023-04-24T13:33:50;13.63;;;6.35;;
49376;SDS011;35253;34.688;33.040;2023-04-24T13:36:16;7.82;;;4.78;;
49376;SDS011;35253;34.688;33.040;2023-04-24T13:38:42;12.13;;;6.47;;
49376;SDS011;35253;34.688;33.040;2023-04-24T13:41:11;10.15;;;5.45;;
49376;SDS011;35253;34.688;33.040;2023-04-24T13:43:37;25.42;;;9.57;;
49376;SDS011;35253;34.688;33.040;2023-04-24T13:46:02;15.20;;;6.57;;
49376;SDS011;35253;34.688;33.040;2023-04-24T13:48:29;12.15;;;7.55;;
49376;SDS011;35253;34.688;33.040;2023-04-24T13:50:55;12.13;;;5.93;;
49376;SDS011;35253;34.688;33.040;2023-04-24T13:53:21;10.52;;;6.18;;
49376;SDS011;35253;34.688;33.040;2023-04-24T13:55:47;18.77;;;8.45;;
49376;SDS011;35253;34.688;33.040;2023-04-24T13:58:12;11.18;;;5.00;;
49376;SDS011;35253;34.688;33.040;2023-04-24T14:00:38;7.13;;;3.65;;
49376;SDS011;35253;34.688;33.040;2023-04-24T14:03:04;15.15;;;5.60;;
49376;SDS011;35253;34.688;33.040;2023-04-24T14:05:30;12.52;;;4.63;;
49376;SDS011;35253;34.688;33.040;2023-04-24T14:07:57;10.65;;;4.65;;
49376;SDS011;35253;34.688;33.040;2023-04-24T14:10:23;6.80;;;4.97;;
49376;SDS011;35253;34.688;33.040;2023-04-24T14:12:50;7.22;;;5.10;;
49376;SDS011;35253;34.688;33.040;2023-04-24T14:15:16;10.48;;;3.85;;
49376;SDS011;35253;34.688;33.040;2023-04-24T14:17:42;9.45;;;4.07;;
49376;SDS011;35253;34.688;33.040;2023-04-24T14:20:08;9.68;;;4.43;;
49376;SDS011;35253;34.688;33.040;2023-04-24T14:22:34;8.55;;;6.15;;
49376;SDS011;35253;34.688;33.040;2023-04-24T14:25:00;6.15;;;3.88;;
49376;SDS011;35253;34.688;33.040;2023-04-24T14:27:26;3.70;;;3.40;;
49376;SDS011;35253;34.688;33.040;2023-04-24T14:29:52;13.93;;;5.22;;
49376;SDS011;35253;34.688;33.040;2023-04-24T14:32:17;4.55;;;4.13;;
49376;SDS011;35253;34.688;33.040;2023-04-24T14:34:43;6.90;;;3.90;;
49376;SDS011;35253;34.688;33.040;2023-04-24T14:37:09;4.45;;;4.05;;
49376;SDS011;35253;34.688;33.040;2023-04-24T14:39:34;5.13;;;3.95;;
49376;SDS011;35253;34.688;33.040;2023-04-24T14:42:00;4.85;;;3.92;;
49376;SDS011;35253;34.688;33.040;2023-04-24T14:44:27;6.47;;;4.50;;
49376;SDS011;35253;34.688;33.040;2023-04-24T14:46:53;4.03;;;3.42;;
49376;SDS011;35253;34.688;33.040;2023-04-24T14:49:19;10.82;;;4.72;;
49376;SDS011;35253;34.688;33.040;2023-04-24T14:51:44;7.50;;;4.32;;
49376;SDS011;35253;34.688;33.040;2023-04-24T14:54:10;6.00;;;3.35;;